sensor_id;sensor_type;location;lat;lon;timestamp;pressure;altitude;pressure_sealevel;temperature
14023;BMP180;7086;48.116;11.580;2023-07-29T00:00:16;95077.00;;;21.60
14023;BMP180;7086;48.116;11.580;2023-07-29T00:02:45;95001.00;;;21.60
14023;BMP180;7086;48.116;11.580;2023-07-29T00:05:12;95059.00;;;21.50
14023;BMP180;7086;48.116;11.580;2023-07-29T00:07:39;94977.00;;;21.60
14023;BMP180;7086;48.116;11.580;2023-07-29T00:10:07;94972.00;;;21.60
14023;BMP180;7086;48.116;11.580;2023-07-29T00:12:34;95056.00;;;21.50
14023;BMP180;7086;48.116;11.580;2023-07-29T00:15:03;95014.00;;;21.60
14023;BMP180;7086;48.116;11.580;2023-07-29T00:17:30;95058.00;;;21.60
14023;BMP180;7086;48.116;11.580;2023-07-29T00:19:57;95070.00;;;21.60
14023;BMP180;7086;48.116;11.580;2023-07-29T00:22:24;95094.00;;;21.40
14023;BMP180;7086;48.116;11.580;2023-07-29T00:24:52;95023.00;;;21.50
14023;BMP180;7086;48.116;11.580;2023-07-29T00:27:20;95015.00;;;21.50
14023;BMP180;7086;48.116;11.580;2023-07-29T00:29:47;95038.00;;;21.30
14023;BMP180;7086;48.116;11.580;2023-07-29T00:32:15;95067.00;;;21.40
14023;BMP180;7086;48.116;11.580;2023-07-29T00:34:42;95054.00;;;21.40
14023;BMP180;7086;48.116;11.580;2023-07-29T00:37:09;95034.00;;;21.30
14023;BMP180;7086;48.116;11.580;2023-07-29T00:39:40;94947.00;;;21.10
14023;BMP180;7086;48.116;11.580;2023-07-29T00:42:10;94993.00;;;21.30
14023;BMP180;7086;48.116;11.580;2023-07-29T00:44:43;95005.00;;;21.30
14023;BMP180;7086;48.116;11.580;2023-07-29T00:47:11;95085.00;;;21.10
14023;BMP180;7086;48.116;11.580;2023-07-29T00:49:41;94992.00;;;20.90
14023;BMP180;7086;48.116;11.580;2023-07-29T00:52:08;95009.00;;;21.10
14023;BMP180;7086;48.116;11.580;2023-07-29T00:54:37;95010.00;;;21.20
14023;BMP180;7086;48.116;11.580;2023-07-29T00:57:04;94993.00;;;21.20
14023;BMP180;7086;48.116;11.580;2023-07-29T00:59:32;95001.00;;;21.20
14023;BMP180;7086;48.116;11.580;2023-07-29T01:01:59;95043.00;;;21.20
14023;BMP180;7086;48.116;11.580;2023-07-29T01:04:26;95054.00;;;21.10
14023;BMP180;7086;48.116;11.580;2023-07-29T01:07:02;95041.00;;;20.90
14023;BMP180;7086;48.116;11.580;2023-07-29T01:09:41;95062.00;;;21.30
14023;BMP180;7086;48.116;11.580;2023-07-29T01:12:16;95048.00;;;21.30
14023;BMP180;7086;48.116;11.580;2023-07-29T01:14:53;95073.00;;;21.30
14023;BMP180;7086;48.116;11.580;2023-07-29T01:17:23;95026.00;;;21.30
14023;BMP180;7086;48.116;11.580;2023-07-29T01:20:00;95001.00;;;21.00
14023;BMP180;7086;48.116;11.580;2023-07-29T01:22:30;95042.00;;;21.30
14023;BMP180;7086;48.116;11.580;2023-07-29T01:25:00;95001.00;;;21.40
14023;BMP180;7086;48.116;11.580;2023-07-29T01:27:27;94951.00;;;21.20
14023;BMP180;7086;48.116;11.580;2023-07-29T01:29:55;94952.00;;;21.30
14023;BMP180;7086;48.116;11.580;2023-07-29T01:32:28;94893.00;;;21.10
14023;BMP180;7086;48.116;11.580;2023-07-29T01:35:00;95023.00;;;21.30
14023;BMP180;7086;48.116;11.580;2023-07-29T01:37:32;95024.00;;;21.30
14023;BMP180;7086;48.116;11.580;2023-07-29T01:40:01;95021.00;;;21.30
14023;BMP180;7086;48.116;11.580;2023-07-29T01:42:29;94932.00;;;21.20
14023;BMP180;7086;48.116;11.580;2023-07-29T01:44:57;95032.00;;;21.30
14023;BMP180;7086;48.116;11.580;2023-07-29T01:47:24;95008.00;;;21.30
14023;BMP180;7086;48.116;11.580;2023-07-29T01:49:52;94945.00;;;21.30
14023;BMP180;7086;48.116;11.580;2023-07-29T01:52:19;94953.00;;;21.30
14023;BMP180;7086;48.116;11.580;2023-07-29T01:54:46;95014.00;;;21.30
14023;BMP180;7086;48.116;11.580;2023-07-29T01:57:15;94956.00;;;21.00
14023;BMP180;7086;48.116;11.580;2023-07-29T01:59:42;95048.00;;;20.90
14023;BMP180;7086;48.116;11.580;2023-07-29T02:02:09;95020.00;;;21.30
14023;BMP180;7086;48.116;11.580;2023-07-29T02:04:37;95054.00;;;21.10
14023;BMP180;7086;48.116;11.580;2023-07-29T02:07:05;94951.00;;;21.20
14023;BMP180;7086;48.116;11.580;2023-07-29T02:09:32;95003.00;;;21.10
14023;BMP180;7086;48.116;11.580;2023-07-29T02:12:00;94951.00;;;21.30
14023;BMP180;7086;48.116;11.580;2023-07-29T02:14:29;94984.00;;;21.30
14023;BMP180;7086;48.116;11.580;2023-07-29T02:16:56;95032.00;;;21.30
14023;BMP180;7086;48.116;11.580;2023-07-29T02:19:24;95005.00;;;21.20
14023;BMP180;7086;48.116;11.580;2023-07-29T02:21:51;94912.00;;;21.20
14023;BMP180;7086;48.116;11.580;2023-07-29T02:24:18;95014.00;;;21.10
14023;BMP180;7086;48.116;11.580;2023-07-29T02:26:45;95023.00;;;21.10
14023;BMP180;7086;48.116;11.580;2023-07-29T02:29:12;95012.00;;;21.00
14023;BMP180;7086;48.116;11.580;2023-07-29T02:31:40;95014.00;;;21.20
14023;BMP180;7086;48.116;11.580;2023-07-29T02:34:09;95022.00;;;21.20
14023;BMP180;7086;48.116;11.580;2023-07-29T02:36:36;95042.00;;;20.90
14023;BMP180;7086;48.116;11.580;2023-07-29T02:39:03;95002.00;;;21.10
14023;BMP180;7086;48.116;11.580;2023-07-29T02:41:31;95036.00;;;21.20
14023;BMP180;7086;48.116;11.580;2023-07-29T02:43:58;95038.00;;;21.20
14023;BMP180;7086;48.116;11.580;2023-07-29T02:46:25;94983.00;;;21.10
14023;BMP180;7086;48.116;11.580;2023-07-29T02:48:54;94964.00;;;21.10
14023;BMP180;7086;48.116;11.580;2023-07-29T02:51:22;95047.00;;;21.10
14023;BMP180;7086;48.116;11.580;2023-07-29T02:53:51;94965.00;;;20.70
14023;BMP180;7086;48.116;11.580;2023-07-29T02:56:21;95035.00;;;20.70
14023;BMP180;7086;48.116;11.580;2023-07-29T02:58:49;94964.00;;;21.00
14023;BMP180;7086;48.116;11.580;2023-07-29T03:01:17;94961.00;;;20.90
14023;BMP180;7086;48.116;11.580;2023-07-29T03:03:45;95025.00;;;21.00
14023;BMP180;7086;48.116;11.580;2023-07-29T03:06:14;94923.00;;;20.80
14023;BMP180;7086;48.116;11.580;2023-07-29T03:08:42;94963.00;;;20.90
14023;BMP180;7086;48.116;11.580;2023-07-29T03:11:11;95047.00;;;20.70
14023;BMP180;7086;48.116;11.580;2023-07-29T03:13:39;95009.00;;;20.50
14023;BMP180;7086;48.116;11.580;2023-07-29T03:16:07;94996.00;;;20.90
14023;BMP180;7086;48.116;11.580;2023-07-29T03:18:34;94941.00;;;20.90
14023;BMP180;7086;48.116;11.580;2023-07-29T03:21:01;95033.00;;;20.90
14023;BMP180;7086;48.116;11.580;2023-07-29T03:23:30;95005.00;;;20.80
14023;BMP180;7086;48.116;11.580;2023-07-29T03:25:58;95020.00;;;20.80
14023;BMP180;7086;48.116;11.580;2023-07-29T03:28:25;94972.00;;;20.80
14023;BMP180;7086;48.116;11.580;2023-07-29T03:30:53;94986.00;;;20.80
14023;BMP180;7086;48.116;11.580;2023-07-29T03:33:21;95017.00;;;20.90
14023;BMP180;7086;48.116;11.580;2023-07-29T03:35:48;95001.00;;;20.90
14023;BMP180;7086;48.116;11.580;2023-07-29T03:38:15;94951.00;;;20.50
14023;BMP180;7086;48.116;11.580;2023-07-29T03:40:44;94931.00;;;20.90
14023;BMP180;7086;48.116;11.580;2023-07-29T03:43:11;95013.00;;;20.90
14023;BMP180;7086;48.116;11.580;2023-07-29T03:45:38;94999.00;;;20.90
14023;BMP180;7086;48.116;11.580;2023-07-29T03:48:05;95000.00;;;20.90
14023;BMP180;7086;48.116;11.580;2023-07-29T03:50:34;94997.00;;;20.70
14023;BMP180;7086;48.116;11.580;2023-07-29T03:53:02;95007.00;;;20.90
14023;BMP180;7086;48.116;11.580;2023-07-29T03:55:29;95007.00;;;20.90
14023;BMP180;7086;48.116;11.580;2023-07-29T03:57:57;95013.00;;;20.90
14023;BMP180;7086;48.116;11.580;2023-07-29T04:00:25;94999.00;;;20.90
14023;BMP180;7086;48.116;11.580;2023-07-29T04:02:52;94985.00;;;20.90
14023;BMP180;7086;48.116;11.580;2023-07-29T04:05:19;94963.00;;;20.90
14023;BMP180;7086;48.116;11.580;2023-07-29T04:07:46;95014.00;;;21.00
14023;BMP180;7086;48.116;11.580;2023-07-29T04:10:13;94968.00;;;21.00
14023;BMP180;7086;48.116;11.580;2023-07-29T04:12:40;94939.00;;;21.10
14023;BMP180;7086;48.116;11.580;2023-07-29T04:15:09;94980.00;;;21.10
14023;BMP180;7086;48.116;11.580;2023-07-29T04:17:36;94928.00;;;21.20
14023;BMP180;7086;48.116;11.580;2023-07-29T04:20:04;94968.00;;;21.20
14023;BMP180;7086;48.116;11.580;2023-07-29T04:22:31;94972.00;;;21.20
14023;BMP180;7086;48.116;11.580;2023-07-29T04:24:58;94980.00;;;21.20
14023;BMP180;7086;48.116;11.580;2023-07-29T04:27:25;94936.00;;;21.20
14023;BMP180;7086;48.116;11.580;2023-07-29T04:29:53;94883.00;;;21.20
14023;BMP180;7086;48.116;11.580;2023-07-29T04:32:22;94970.00;;;21.20
14023;BMP180;7086;48.116;11.580;2023-07-29T04:34:49;94955.00;;;21.20
14023;BMP180;7086;48.116;11.580;2023-07-29T04:37:15;94925.00;;;21.00
14023;BMP180;7086;48.116;11.580;2023-07-29T04:39:42;94967.00;;;21.20
14023;BMP180;7086;48.116;11.580;2023-07-29T04:42:09;94940.00;;;21.20
14023;BMP180;7086;48.116;11.580;2023-07-29T04:44:36;94970.00;;;21.30
14023;BMP180;7086;48.116;11.580;2023-07-29T04:47:04;94978.00;;;21.30
14023;BMP180;7086;48.116;11.580;2023-07-29T04:49:32;95001.00;;;20.90
14023;BMP180;7086;48.116;11.580;2023-07-29T04:51:59;94961.00;;;21.40
14023;BMP180;7086;48.116;11.580;2023-07-29T04:54:27;94963.00;;;21.40
14023;BMP180;7086;48.116;11.580;2023-07-29T04:56:53;94940.00;;;21.40
14023;BMP180;7086;48.116;11.580;2023-07-29T04:59:20;94971.00;;;21.60
14023;BMP180;7086;48.116;11.580;2023-07-29T05:01:47;94899.00;;;21.40
14023;BMP180;7086;48.116;11.580;2023-07-29T05:04:14;94934.00;;;21.70
14023;BMP180;7086;48.116;11.580;2023-07-29T05:06:43;94930.00;;;21.80
14023;BMP180;7086;48.116;11.580;2023-07-29T05:09:13;94940.00;;;22.00
14023;BMP180;7086;48.116;11.580;2023-07-29T05:11:41;94961.00;;;22.10
14023;BMP180;7086;48.116;11.580;2023-07-29T05:14:09;94951.00;;;22.30
14023;BMP180;7086;48.116;11.580;2023-07-29T05:16:36;94939.00;;;22.30
14023;BMP180;7086;48.116;11.580;2023-07-29T05:19:03;94918.00;;;22.60
14023;BMP180;7086;48.116;11.580;2023-07-29T05:21:30;94906.00;;;22.70
14023;BMP180;7086;48.116;11.580;2023-07-29T05:23:58;94937.00;;;22.90
14023;BMP180;7086;48.116;11.580;2023-07-29T05:26:25;94933.00;;;23.00
14023;BMP180;7086;48.116;11.580;2023-07-29T05:28:52;94930.00;;;23.20
14023;BMP180;7086;48.116;11.580;2023-07-29T05:31:19;94934.00;;;23.30
14023;BMP180;7086;48.116;11.580;2023-07-29T05:33:46;94901.00;;;23.40
14023;BMP180;7086;48.116;11.580;2023-07-29T05:36:13;94949.00;;;23.60
14023;BMP180;7086;48.116;11.580;2023-07-29T05:38:43;94860.00;;;23.70
14023;BMP180;7086;48.116;11.580;2023-07-29T05:41:12;94957.00;;;23.80
14023;BMP180;7086;48.116;11.580;2023-07-29T05:43:40;94951.00;;;23.90
14023;BMP180;7086;48.116;11.580;2023-07-29T05:46:08;94965.00;;;24.10
14023;BMP180;7086;48.116;11.580;2023-07-29T05:48:35;94965.00;;;24.20
14023;BMP180;7086;48.116;11.580;2023-07-29T05:51:03;94905.00;;;24.20
14023;BMP180;7086;48.116;11.580;2023-07-29T05:53:30;94935.00;;;24.40
14023;BMP180;7086;48.116;11.580;2023-07-29T05:55:57;94881.00;;;24.60
14023;BMP180;7086;48.116;11.580;2023-07-29T05:58:26;94945.00;;;24.50
14023;BMP180;7086;48.116;11.580;2023-07-29T06:00:53;94965.00;;;24.60
14023;BMP180;7086;48.116;11.580;2023-07-29T06:03:20;95018.00;;;24.70
14023;BMP180;7086;48.116;11.580;2023-07-29T06:05:48;95037.00;;;24.60
14023;BMP180;7086;48.116;11.580;2023-07-29T06:08:15;95008.00;;;24.60
14023;BMP180;7086;48.116;11.580;2023-07-29T06:10:42;94990.00;;;24.40
14023;BMP180;7086;48.116;11.580;2023-07-29T06:13:09;94971.00;;;24.10
14023;BMP180;7086;48.116;11.580;2023-07-29T06:15:37;94954.00;;;23.70
14023;BMP180;7086;48.116;11.580;2023-07-29T06:18:04;94945.00;;;23.40
14023;BMP180;7086;48.116;11.580;2023-07-29T06:20:30;94950.00;;;23.10
14023;BMP180;7086;48.116;11.580;2023-07-29T06:22:57;94953.00;;;22.70
14023;BMP180;7086;48.116;11.580;2023-07-29T06:25:24;94937.00;;;22.60
14023;BMP180;7086;48.116;11.580;2023-07-29T06:27:51;94968.00;;;22.40
14023;BMP180;7086;48.116;11.580;2023-07-29T06:30:18;94977.00;;;22.20
14023;BMP180;7086;48.116;11.580;2023-07-29T06:32:46;94964.00;;;22.10
14023;BMP180;7086;48.116;11.580;2023-07-29T06:35:13;94971.00;;;22.10
14023;BMP180;7086;48.116;11.580;2023-07-29T06:37:39;94980.00;;;22.10
14023;BMP180;7086;48.116;11.580;2023-07-29T06:40:07;94984.00;;;22.10
14023;BMP180;7086;48.116;11.580;2023-07-29T06:42:34;94994.00;;;22.10
14023;BMP180;7086;48.116;11.580;2023-07-29T06:45:03;94994.00;;;22.10
14023;BMP180;7086;48.116;11.580;2023-07-29T06:47:30;95005.00;;;22.10
14023;BMP180;7086;48.116;11.580;2023-07-29T06:49:58;95023.00;;;22.10
14023;BMP180;7086;48.116;11.580;2023-07-29T06:52:25;95043.00;;;22.10
14023;BMP180;7086;48.116;11.580;2023-07-29T06:54:52;95046.00;;;22.10
14023;BMP180;7086;48.116;11.580;2023-07-29T06:57:19;95051.00;;;22.10
14023;BMP180;7086;48.116;11.580;2023-07-29T06:59:46;95055.00;;;22.10
14023;BMP180;7086;48.116;11.580;2023-07-29T07:02:13;95053.00;;;22.10
14023;BMP180;7086;48.116;11.580;2023-07-29T07:04:39;95061.00;;;22.00
14023;BMP180;7086;48.116;11.580;2023-07-29T07:07:08;95064.00;;;21.90
14023;BMP180;7086;48.116;11.580;2023-07-29T07:09:34;95028.00;;;21.90
14023;BMP180;7086;48.116;11.580;2023-07-29T07:12:02;95040.00;;;21.90
14023;BMP180;7086;48.116;11.580;2023-07-29T07:14:29;95044.00;;;21.90
14023;BMP180;7086;48.116;11.580;2023-07-29T07:16:55;95044.00;;;21.90
14023;BMP180;7086;48.116;11.580;2023-07-29T07:19:22;95052.00;;;21.90
14023;BMP180;7086;48.116;11.580;2023-07-29T07:21:49;95041.00;;;21.90
14023;BMP180;7086;48.116;11.580;2023-07-29T07:24:17;94990.00;;;21.90
14023;BMP180;7086;48.116;11.580;2023-07-29T07:26:44;95036.00;;;21.90
14023;BMP180;7086;48.116;11.580;2023-07-29T07:29:11;95038.00;;;21.90
14023;BMP180;7086;48.116;11.580;2023-07-29T07:32:01;95020.00;;;21.90
14023;BMP180;7086;48.116;11.580;2023-07-29T07:34:45;95025.00;;;21.90
14023;BMP180;7086;48.116;11.580;2023-07-29T07:37:12;94990.00;;;21.90
14023;BMP180;7086;48.116;11.580;2023-07-29T07:39:40;95003.00;;;22.00
14023;BMP180;7086;48.116;11.580;2023-07-29T07:42:07;95009.00;;;22.00
14023;BMP180;7086;48.116;11.580;2023-07-29T07:44:34;94997.00;;;22.00
14023;BMP180;7086;48.116;11.580;2023-07-29T07:47:04;94977.00;;;22.00
14023;BMP180;7086;48.116;11.580;2023-07-29T07:49:31;94970.00;;;22.00
14023;BMP180;7086;48.116;11.580;2023-07-29T07:52:04;94882.00;;;22.00
14023;BMP180;7086;48.116;11.580;2023-07-29T07:54:31;94937.00;;;22.00
14023;BMP180;7086;48.116;11.580;2023-07-29T07:57:00;94938.00;;;21.80
14023;BMP180;7086;48.116;11.580;2023-07-29T07:59:27;94969.00;;;22.10
14023;BMP180;7086;48.116;11.580;2023-07-29T08:01:53;94980.00;;;22.10
14023;BMP180;7086;48.116;11.580;2023-07-29T08:04:20;94987.00;;;22.10
14023;BMP180;7086;48.116;11.580;2023-07-29T08:06:47;94989.00;;;22.10
14023;BMP180;7086;48.116;11.580;2023-07-29T08:09:14;94970.00;;;22.20
14023;BMP180;7086;48.116;11.580;2023-07-29T08:11:41;94985.00;;;22.20
14023;BMP180;7086;48.116;11.580;2023-07-29T08:14:10;94983.00;;;22.30
14023;BMP180;7086;48.116;11.580;2023-07-29T08:16:37;94988.00;;;22.40
14023;BMP180;7086;48.116;11.580;2023-07-29T08:19:05;94977.00;;;22.50
14023;BMP180;7086;48.116;11.580;2023-07-29T08:21:32;94991.00;;;22.60
14023;BMP180;7086;48.116;11.580;2023-07-29T08:23:59;94980.00;;;22.70
14023;BMP180;7086;48.116;11.580;2023-07-29T08:26:26;94982.00;;;22.90
14023;BMP180;7086;48.116;11.580;2023-07-29T08:28:54;94979.00;;;23.00
14023;BMP180;7086;48.116;11.580;2023-07-29T08:31:22;95001.00;;;23.20
14023;BMP180;7086;48.116;11.580;2023-07-29T08:33:48;94979.00;;;23.40
14023;BMP180;7086;48.116;11.580;2023-07-29T08:36:16;94966.00;;;23.60
14023;BMP180;7086;48.116;11.580;2023-07-29T08:38:43;94983.00;;;23.80
14023;BMP180;7086;48.116;11.580;2023-07-29T08:41:14;94977.00;;;24.00
14023;BMP180;7086;48.116;11.580;2023-07-29T08:43:44;94978.00;;;24.10
14023;BMP180;7086;48.116;11.580;2023-07-29T08:46:15;94977.00;;;24.30
14023;BMP180;7086;48.116;11.580;2023-07-29T08:48:44;94960.00;;;24.40
14023;BMP180;7086;48.116;11.580;2023-07-29T08:51:12;94977.00;;;24.50
14023;BMP180;7086;48.116;11.580;2023-07-29T08:53:39;94986.00;;;24.60
14023;BMP180;7086;48.116;11.580;2023-07-29T08:56:07;94980.00;;;24.70
14023;BMP180;7086;48.116;11.580;2023-07-29T08:58:34;94980.00;;;24.80
14023;BMP180;7086;48.116;11.580;2023-07-29T09:01:01;94961.00;;;24.90
14023;BMP180;7086;48.116;11.580;2023-07-29T09:03:28;94984.00;;;25.00
14023;BMP180;7086;48.116;11.580;2023-07-29T09:06:02;94990.00;;;25.20
14023;BMP180;7086;48.116;11.580;2023-07-29T09:08:32;94979.00;;;25.40
14023;BMP180;7086;48.116;11.580;2023-07-29T09:10:59;94985.00;;;25.70
14023;BMP180;7086;48.116;11.580;2023-07-29T09:13:26;95001.00;;;26.00
14023;BMP180;7086;48.116;11.580;2023-07-29T09:15:55;94984.00;;;26.40
14023;BMP180;7086;48.116;11.580;2023-07-29T09:18:22;94987.00;;;26.90
14023;BMP180;7086;48.116;11.580;2023-07-29T09:20:50;94961.00;;;27.40
14023;BMP180;7086;48.116;11.580;2023-07-29T09:23:18;94994.00;;;27.90
14023;BMP180;7086;48.116;11.580;2023-07-29T09:25:46;94988.00;;;28.60
14023;BMP180;7086;48.116;11.580;2023-07-29T09:28:14;94988.00;;;29.30
14023;BMP180;7086;48.116;11.580;2023-07-29T09:30:44;94985.00;;;30.10
14023;BMP180;7086;48.116;11.580;2023-07-29T09:33:11;94986.00;;;30.80
14023;BMP180;7086;48.116;11.580;2023-07-29T09:35:38;94990.00;;;31.40
14023;BMP180;7086;48.116;11.580;2023-07-29T09:38:06;94981.00;;;32.10
14023;BMP180;7086;48.116;11.580;2023-07-29T09:40:39;94970.00;;;32.70
14023;BMP180;7086;48.116;11.580;2023-07-29T09:43:08;94983.00;;;33.20
14023;BMP180;7086;48.116;11.580;2023-07-29T09:45:37;94976.00;;;33.60
14023;BMP180;7086;48.116;11.580;2023-07-29T09:48:05;94977.00;;;34.00
14023;BMP180;7086;48.116;11.580;2023-07-29T09:50:36;94984.00;;;34.50
14023;BMP180;7086;48.116;11.580;2023-07-29T09:53:03;94979.00;;;34.90
14023;BMP180;7086;48.116;11.580;2023-07-29T09:55:32;94983.00;;;35.10
14023;BMP180;7086;48.116;11.580;2023-07-29T09:58:01;94986.00;;;35.20
14023;BMP180;7086;48.116;11.580;2023-07-29T10:00:32;94973.00;;;35.20
14023;BMP180;7086;48.116;11.580;2023-07-29T10:03:00;94952.00;;;35.40
14023;BMP180;7086;48.116;11.580;2023-07-29T10:05:28;94968.00;;;35.40
14023;BMP180;7086;48.116;11.580;2023-07-29T10:07:55;94973.00;;;35.40
14023;BMP180;7086;48.116;11.580;2023-07-29T10:10:23;94977.00;;;35.40
14023;BMP180;7086;48.116;11.580;2023-07-29T10:12:54;94976.00;;;35.50
14023;BMP180;7086;48.116;11.580;2023-07-29T10:15:22;94979.00;;;35.40
14023;BMP180;7086;48.116;11.580;2023-07-29T10:17:51;94972.00;;;35.50
14023;BMP180;7086;48.116;11.580;2023-07-29T10:20:18;94972.00;;;35.60
14023;BMP180;7086;48.116;11.580;2023-07-29T10:22:47;94940.00;;;35.60
14023;BMP180;7086;48.116;11.580;2023-07-29T10:25:16;94958.00;;;35.70
14023;BMP180;7086;48.116;11.580;2023-07-29T10:27:47;94948.00;;;35.90
14023;BMP180;7086;48.116;11.580;2023-07-29T10:30:15;94968.00;;;36.20
14023;BMP180;7086;48.116;11.580;2023-07-29T10:32:44;94939.00;;;36.50
14023;BMP180;7086;48.116;11.580;2023-07-29T10:35:12;94961.00;;;36.80
14023;BMP180;7086;48.116;11.580;2023-07-29T10:37:40;94964.00;;;37.10
14023;BMP180;7086;48.116;11.580;2023-07-29T10:40:09;94945.00;;;37.30
14023;BMP180;7086;48.116;11.580;2023-07-29T10:42:37;94965.00;;;37.30
14023;BMP180;7086;48.116;11.580;2023-07-29T10:45:17;94963.00;;;37.30
14023;BMP180;7086;48.116;11.580;2023-07-29T10:47:47;94937.00;;;37.30
14023;BMP180;7086;48.116;11.580;2023-07-29T10:50:18;94962.00;;;37.10
14023;BMP180;7086;48.116;11.580;2023-07-29T10:52:49;94948.00;;;37.20
14023;BMP180;7086;48.116;11.580;2023-07-29T10:55:25;94935.00;;;37.10
14023;BMP180;7086;48.116;11.580;2023-07-29T10:57:52;94949.00;;;37.00
14023;BMP180;7086;48.116;11.580;2023-07-29T11:00:20;94928.00;;;36.80
14023;BMP180;7086;48.116;11.580;2023-07-29T11:02:59;94940.00;;;36.40
14023;BMP180;7086;48.116;11.580;2023-07-29T11:05:42;94948.00;;;36.40
14023;BMP180;7086;48.116;11.580;2023-07-29T11:08:25;94940.00;;;36.60
14023;BMP180;7086;48.116;11.580;2023-07-29T11:11:02;94937.00;;;36.90
14023;BMP180;7086;48.116;11.580;2023-07-29T11:13:31;94932.00;;;37.10
14023;BMP180;7086;48.116;11.580;2023-07-29T11:15:59;94929.00;;;37.10
14023;BMP180;7086;48.116;11.580;2023-07-29T11:18:29;94930.00;;;37.00
14023;BMP180;7086;48.116;11.580;2023-07-29T11:21:00;94947.00;;;36.90
14023;BMP180;7086;48.116;11.580;2023-07-29T11:23:29;94961.00;;;36.70
14023;BMP180;7086;48.116;11.580;2023-07-29T11:25:56;94941.00;;;36.30
14023;BMP180;7086;48.116;11.580;2023-07-29T11:28:24;94955.00;;;35.70
14023;BMP180;7086;48.116;11.580;2023-07-29T11:30:51;94948.00;;;35.00
14023;BMP180;7086;48.116;11.580;2023-07-29T11:33:19;94965.00;;;34.30
14023;BMP180;7086;48.116;11.580;2023-07-29T11:35:49;94961.00;;;33.90
14023;BMP180;7086;48.116;11.580;2023-07-29T11:38:17;94961.00;;;33.70
14023;BMP180;7086;48.116;11.580;2023-07-29T11:40:54;94962.00;;;33.70
14023;BMP180;7086;48.116;11.580;2023-07-29T11:43:21;94965.00;;;33.80
14023;BMP180;7086;48.116;11.580;2023-07-29T11:45:49;94961.00;;;34.00
14023;BMP180;7086;48.116;11.580;2023-07-29T11:48:16;94959.00;;;34.30
14023;BMP180;7086;48.116;11.580;2023-07-29T11:50:43;94956.00;;;34.50
14023;BMP180;7086;48.116;11.580;2023-07-29T11:53:15;94965.00;;;34.80
14023;BMP180;7086;48.116;11.580;2023-07-29T11:55:42;94957.00;;;34.90
14023;BMP180;7086;48.116;11.580;2023-07-29T11:58:09;94931.00;;;35.00
14023;BMP180;7086;48.116;11.580;2023-07-29T12:00:38;94951.00;;;35.10
14023;BMP180;7086;48.116;11.580;2023-07-29T12:03:05;94950.00;;;35.10
14023;BMP180;7086;48.116;11.580;2023-07-29T12:05:34;94921.00;;;35.00
14023;BMP180;7086;48.116;11.580;2023-07-29T12:08:01;94940.00;;;34.60
14023;BMP180;7086;48.116;11.580;2023-07-29T12:10:29;94919.00;;;34.20
14023;BMP180;7086;48.116;11.580;2023-07-29T12:12:56;94935.00;;;33.80
14023;BMP180;7086;48.116;11.580;2023-07-29T12:15:25;94932.00;;;33.60
14023;BMP180;7086;48.116;11.580;2023-07-29T12:17:54;94938.00;;;33.30
14023;BMP180;7086;48.116;11.580;2023-07-29T12:20:22;94918.00;;;33.10
14023;BMP180;7086;48.116;11.580;2023-07-29T12:22:53;94915.00;;;32.90
14023;BMP180;7086;48.116;11.580;2023-07-29T12:25:20;94918.00;;;32.70
14023;BMP180;7086;48.116;11.580;2023-07-29T12:27:49;94889.00;;;32.60
14023;BMP180;7086;48.116;11.580;2023-07-29T12:30:16;94899.00;;;32.40
14023;BMP180;7086;48.116;11.580;2023-07-29T12:32:46;94913.00;;;32.30
14023;BMP180;7086;48.116;11.580;2023-07-29T12:35:13;94930.00;;;32.30
14023;BMP180;7086;48.116;11.580;2023-07-29T12:37:40;94870.00;;;32.20
14023;BMP180;7086;48.116;11.580;2023-07-29T12:40:20;94899.00;;;32.20
14023;BMP180;7086;48.116;11.580;2023-07-29T12:42:49;94875.00;;;32.10
14023;BMP180;7086;48.116;11.580;2023-07-29T12:45:17;94889.00;;;32.20
14023;BMP180;7086;48.116;11.580;2023-07-29T12:47:44;94877.00;;;32.10
14023;BMP180;7086;48.116;11.580;2023-07-29T12:50:11;94890.00;;;32.10
14023;BMP180;7086;48.116;11.580;2023-07-29T12:52:38;94904.00;;;32.00
14023;BMP180;7086;48.116;11.580;2023-07-29T12:55:08;94953.00;;;31.80
14023;BMP180;7086;48.116;11.580;2023-07-29T12:57:41;94899.00;;;31.60
14023;BMP180;7086;48.116;11.580;2023-07-29T13:00:12;94928.00;;;31.40
14023;BMP180;7086;48.116;11.580;2023-07-29T13:02:39;94911.00;;;31.00
14023;BMP180;7086;48.116;11.580;2023-07-29T13:05:09;94911.00;;;30.60
14023;BMP180;7086;48.116;11.580;2023-07-29T13:07:36;94896.00;;;30.00
14023;BMP180;7086;48.116;11.580;2023-07-29T13:10:04;94929.00;;;29.90
14023;BMP180;7086;48.116;11.580;2023-07-29T13:12:31;94951.00;;;29.60
14023;BMP180;7086;48.116;11.580;2023-07-29T13:14:59;94967.00;;;29.30
14023;BMP180;7086;48.116;11.580;2023-07-29T13:17:30;95010.00;;;29.00
14023;BMP180;7086;48.116;11.580;2023-07-29T13:19:57;95045.00;;;28.50
14023;BMP180;7086;48.116;11.580;2023-07-29T13:22:24;94932.00;;;28.10
14023;BMP180;7086;48.116;11.580;2023-07-29T13:24:51;94951.00;;;27.70
14023;BMP180;7086;48.116;11.580;2023-07-29T13:27:18;94963.00;;;27.30
14023;BMP180;7086;48.116;11.580;2023-07-29T13:29:45;94946.00;;;26.90
14023;BMP180;7086;48.116;11.580;2023-07-29T13:32:12;94953.00;;;26.50
14023;BMP180;7086;48.116;11.580;2023-07-29T13:34:40;94960.00;;;26.30
14023;BMP180;7086;48.116;11.580;2023-07-29T13:37:07;94961.00;;;26.00
14023;BMP180;7086;48.116;11.580;2023-07-29T13:39:34;94956.00;;;25.80
14023;BMP180;7086;48.116;11.580;2023-07-29T13:42:01;94951.00;;;25.60
14023;BMP180;7086;48.116;11.580;2023-07-29T13:44:28;94968.00;;;25.60
14023;BMP180;7086;48.116;11.580;2023-07-29T13:46:55;94957.00;;;25.40
14023;BMP180;7086;48.116;11.580;2023-07-29T13:49:21;94929.00;;;25.40
14023;BMP180;7086;48.116;11.580;2023-07-29T13:51:50;94951.00;;;25.30
14023;BMP180;7086;48.116;11.580;2023-07-29T13:54:17;94933.00;;;25.20
14023;BMP180;7086;48.116;11.580;2023-07-29T13:56:44;94955.00;;;25.20
14023;BMP180;7086;48.116;11.580;2023-07-29T13:59:11;94969.00;;;25.20
14023;BMP180;7086;48.116;11.580;2023-07-29T14:01:37;94941.00;;;25.20
14023;BMP180;7086;48.116;11.580;2023-07-29T14:04:07;94931.00;;;25.20
14023;BMP180;7086;48.116;11.580;2023-07-29T14:06:34;94906.00;;;25.20
14023;BMP180;7086;48.116;11.580;2023-07-29T14:09:04;94954.00;;;25.20
14023;BMP180;7086;48.116;11.580;2023-07-29T14:11:33;94838.00;;;25.20
14023;BMP180;7086;48.116;11.580;2023-07-29T14:14:06;94845.00;;;25.00